Thunder radar more information blitzortung!


Radar de pluja more information rain snow radar


Visita la nostra xarxa de llocs de meteo:

Template documentation
and downloads

And another site



No particular awareness of the weather is required.    There are no Weather-warnings

Pagina Historial Weather Underground text

Diari Resum Setembre 5, 2017 Unitats:  Mètric    Imperial   Tant
« Previous Dia
SegĂźent Dia »
Diari Setmana Mensual Anual Personalitzada
  Maxima: Minima: Media:
Temperatura: -17.8 °C -8.6 °C -3.5 °C
Punt de rosada: -17.8 °C -10.1 °C -8.5 °C
Humitat: Humidity % 38 % 59 %
Wind Speed: 0 km/h 0 km/h 10.6 km/h
RĂ fegues de vent: 0 km/h - -
Vent:- - SW
Pression baro: 0 hPa 34428.8 hPa -
Precipitacions: 0 mm    
Historical Graphs
 
 
Dades de taula per Setembre 5, 2017
Temps Temperatura Punt de rosada Pression baro Vent Wind Speed RĂ fegues de vent Humitat Rainfall Rate (Hourly)
-17.8 °C -17.8 °C 0 hPa Calm     Humidity % 0 mm
00:00 -7.7 °C -9.4 °C 34533.8 hPa Calm   2.6 km/h 82 % 0 mm
00:02 -6.4 °C -9.3 °C 34533.8 hPa Calm     72 % 0 mm
00:10 -7.7 °C -9.4 °C 34533.8 hPa NNW 2.6 km/h 5.1 km/h 82 % 0 mm
00:20 -7.8 °C -9.5 °C 34533.8 hPa Calm   5.1 km/h 82 % 0 mm
00:30 -7.8 °C -9.6 °C 34533.8 hPa Calm     82 % 0 mm
00:40 -8 °C -9.7 °C 34533.8 hPa Calm   2.6 km/h 82 % 0 mm
00:50 -8.1 °C -9.8 °C 34533.8 hPa WSW 2.6 km/h 5.1 km/h 82 % 0 mm
01:00 -8.2 °C -9.9 °C 34533.8 hPa WSW 2.6 km/h 5.1 km/h 82 % 0 mm
01:10 -8.2 °C -9.8 °C 34533.8 hPa SW 2.6 km/h 5.1 km/h 83 % 0 mm
01:20 -8.2 °C -9.8 °C 34533.8 hPa SW 2.6 km/h 5.1 km/h 83 % 0 mm
01:30 -8.2 °C -9.8 °C 34533.8 hPa Calm   2.6 km/h 83 % 0 mm
01:40 -8.2 °C -9.7 °C 34533.8 hPa Calm     84 % 0 mm
01:50 -8.2 °C -9.7 °C 34533.8 hPa Calm     84 % 0 mm
02:00 -8.3 °C -9.9 °C 34533.8 hPa Calm   5.1 km/h 83 % 0 mm
02:10 -8.3 °C -9.8 °C 34533.8 hPa Calm     84 % 0 mm
02:20 -8.6 °C -10.1 °C 34533.8 hPa WSW 2.6 km/h 5.1 km/h 84 % 0 mm
02:30 -8.5 °C -10 °C 34496.6 hPa SW 2.6 km/h 5.1 km/h 84 % 0 mm
02:40 -8.5 °C -9.9 °C 34496.6 hPa Calm   5.1 km/h 85 % 0 mm
02:50 -8.3 °C -9.8 °C 34496.6 hPa Calm   5.1 km/h 85 % 0 mm
03:00 -8 °C -9.3 °C 34533.8 hPa Calm   2.6 km/h 86 % 0 mm
03:10 -7.6 °C -9 °C 34533.8 hPa Calm     85 % 0 mm
03:20 -7.2 °C -8.8 °C 34533.8 hPa Calm   2.6 km/h 83 % 0 mm
03:30 -6.7 °C -8.6 °C 34533.8 hPa Calm     81 % 0 mm
03:40 -6.6 °C -8.7 °C 34533.8 hPa Calm     79 % 0 mm
03:50 -6.6 °C -8.8 °C 34533.8 hPa NNW 2.6 km/h 2.6 km/h 78 % 0 mm
04:00 -6.6 °C -8.8 °C 34533.8 hPa Calm     77 % 0 mm
04:10 -6.5 °C -8.8 °C 34567.7 hPa West 2.6 km/h 2.6 km/h 77 % 0 mm
04:20 -6 °C -8.4 °C 34567.7 hPa Calm   5.1 km/h 76 % 0 mm
04:30 -6.1 °C -8.6 °C 34533.8 hPa SSW 2.6 km/h 5.1 km/h 75 % 0 mm
04:40 -5.9 °C -8.6 °C 34533.8 hPa SW 2.6 km/h 5.1 km/h 74 % 0 mm
04:50 -5.5 °C -8.4 °C 34533.8 hPa Calm   7.7 km/h 72 % 0 mm
05:00 -5.2 °C -8.3 °C 34533.8 hPa NE 5.1 km/h 7.7 km/h 71 % 0 mm
05:10 -4.8 °C -8.1 °C 34533.8 hPa NNE 5.1 km/h 7.7 km/h 70 % 0 mm
05:20 -4.4 °C -8 °C 34533.8 hPa SSE 2.6 km/h 7.7 km/h 67 % 0 mm
10:23 -4.7 °C -8.2 °C 34567.7 hPa ESE 9 km/h 9 km/h 68 % 0 mm
10:24 -4.7 °C -8.2 °C 34567.7 hPa ESE 9 km/h 9 km/h 68 % 0 mm
10:29 -4.4 °C -8.1 °C 34567.7 hPa NNW 6.3 km/h   67 % 0 mm
10:34 -4.3 °C -8.1 °C 34567.7 hPa SE 6 km/h 6 km/h 66 % 0 mm
10:39 -4.1 °C -7.7 °C 34533.8 hPa NE 6.3 km/h 6.3 km/h 67 % 0 mm
10:44 -4 °C -7.8 °C 34533.8 hPa ENE 9.3 km/h 9.3 km/h 66 % 0 mm
10:49 -3.9 °C -7.8 °C 34533.8 hPa SSE 3.1 km/h 3.1 km/h 65 % 0 mm
10:54 -3.7 °C -7.7 °C 34533.8 hPa North 5.1 km/h   64 % 0 mm
10:59 -3.3 °C -7.4 °C 34533.8 hPa SW 6 km/h 6 km/h 64 % 0 mm
11:04 -3.1 °C -7.4 °C 34533.8 hPa SE 6 km/h 6 km/h 62 % 0 mm
11:09 -3.1 °C -7.4 °C 34567.7 hPa NW 6 km/h 6 km/h 62 % 0 mm
11:14 -2.8 °C -7.5 °C 34567.7 hPa SSE 9 km/h 9 km/h 60 % 0 mm
11:19 -2.6 °C -7.4 °C 34567.7 hPa SSE 9.8 km/h 9.8 km/h 59 % 0 mm
11:24 -2.7 °C -7.5 °C 34533.8 hPa SSW 11.9 km/h 11.9 km/h 59 % 0 mm
11:29 -2.4 °C -7.4 °C 34533.8 hPa WNW 10.3 km/h 10.3 km/h 58 % 0 mm
11:34 -2.3 °C -7.5 °C 34533.8 hPa SSE 3.1 km/h 3.1 km/h 57 % 0 mm
11:39 -2 °C -7.7 °C 34533.8 hPa SSW 15 km/h 15 km/h 54 % 0 mm
11:44 -2.2 °C -7.7 °C 34533.8 hPa South 15 km/h 15 km/h 55 % 0 mm
11:49 -2.3 °C -7.9 °C 34533.8 hPa SSW 11.9 km/h 11.9 km/h 54 % 0 mm
11:54 -2.3 °C -8.2 °C 34533.8 hPa WSW 15 km/h 15 km/h 53 % 0 mm
11:59 -1.9 °C -7.9 °C 34533.8 hPa South 9 km/h 9 km/h 52 % 0 mm
12:04 -1.7 °C -7.9 °C 34533.8 hPa WSW 10.3 km/h 10.3 km/h 51 % 0 mm
12:09 -1.9 °C -8.1 °C 34533.8 hPa WSW 23.8 km/h 23.8 km/h 51 % 0 mm
12:14 -1.7 °C -8.1 °C 34533.8 hPa SSW 11.1 km/h 11.1 km/h 50 % 0 mm
12:19 -1.4 °C -8 °C 34533.8 hPa SSW 15 km/h 15 km/h 49 % 0 mm
12:24 -1.5 °C -8.2 °C 34496.6 hPa SW 17.9 km/h 17.9 km/h 48 % 0 mm
12:29 -1.7 °C -8.4 °C 34496.6 hPa SSW 11.9 km/h 11.9 km/h 48 % 0 mm
12:34 -1.4 °C -8.3 °C 34496.6 hPa SW 11.9 km/h 11.9 km/h 47 % 0 mm
12:39 -1.2 °C -8.3 °C 34533.8 hPa SSW 15 km/h 15 km/h 46 % 0 mm
12:44 -1.1 °C -8.4 °C 34533.8 hPa SSE 8 km/h 8 km/h 45 % 0 mm
12:49 -1.1 °C -8.2 °C 34533.8 hPa SSE 6 km/h 6 km/h 46 % 0 mm
12:54 -1.1 °C -8.3 °C 34533.8 hPa South 11.9 km/h 11.9 km/h 46 % 0 mm
12:59 -0.8 °C -8.2 °C 34533.8 hPa WSW 6.8 km/h 6.8 km/h 45 % 0 mm
13:04 -1.1 °C -8.6 °C 34533.8 hPa SW 9 km/h 9 km/h 44 % 0 mm
13:06 -0.9 °C -8.5 °C 34533.8 hPa West 9 km/h 9 km/h 44 % 0 mm
13:11 -0.7 °C -8.3 °C 34496.6 hPa SSW 23.8 km/h 23.8 km/h 44 % 0 mm
13:16 -0.6 °C -8.6 °C 34496.6 hPa WSW 8 km/h 8 km/h 42 % 0 mm
13:21 -0.6 °C -8.4 °C 34496.6 hPa WSW 20.3 km/h 20.3 km/h 43 % 0 mm
13:26 -1.1 °C -9.2 °C 34496.6 hPa SE 15 km/h 15 km/h 41 % 0 mm
13:31 -0.6 °C -8.8 °C 34496.6 hPa SSW 9 km/h 9 km/h 41 % 0 mm
13:36 -0.4 °C -8.6 °C 34496.6 hPa SW 10.3 km/h 10.3 km/h 41 % 0 mm
13:41 -0.3 °C -8.6 °C 34496.6 hPa SW 14.5 km/h 14.5 km/h 41 % 0 mm
13:56 -0.4 °C -8.9 °C 34533.8 hPa West 11.9 km/h 11.9 km/h 40 % 0 mm
14:01 -0.4 °C -9.3 °C 34533.8 hPa SE 11.9 km/h 11.9 km/h 38 % 0 mm
14:06 -0.2 °C -8.7 °C 34533.8 hPa WSW 15 km/h 15 km/h 40 % 0 mm
14:11 -0.3 °C -8.8 °C 34496.6 hPa SW 9 km/h 9 km/h 40 % 0 mm
14:16 0.1 °C -8.4 °C 34496.6 hPa South 11.9 km/h 11.9 km/h 40 % 0 mm
14:21 0.1 °C -8.4 °C 34496.6 hPa WSW 11.9 km/h 11.9 km/h 40 % 0 mm
14:26 -0.1 °C -8.4 °C 34496.6 hPa SW 20.9 km/h 20.9 km/h 41 % 0 mm
14:31 -0.1 °C -8.3 °C 34496.6 hPa South 15 km/h 15 km/h 41 % 0 mm
14:36 0.1 °C -8.2 °C 34496.6 hPa WSW 11.6 km/h 11.6 km/h 41 % 0 mm
14:41 -0.1 °C -8.4 °C 34496.6 hPa SSW 15.6 km/h 17.9 km/h 41 % 0 mm
14:46 -0.4 °C -8.8 °C 34496.6 hPa SSE 17.9 km/h 17.9 km/h 40 % 0 mm
14:51 -0.2 °C -8.4 °C 34496.6 hPa SSW 17.9 km/h 17.9 km/h 41 % 0 mm
14:56 -0.1 °C -8.3 °C 34496.6 hPa SSE 20.9 km/h 20.9 km/h 41 % 0 mm
15:01 -0.1 °C -8.3 °C 34496.6 hPa SW 15 km/h 15 km/h 41 % 0 mm
15:06 0.1 °C -8.7 °C 34496.6 hPa SW 9.3 km/h 9.3 km/h 39 % 0 mm
15:11 0.1 °C -8.4 °C 34496.6 hPa SSE 11.9 km/h 11.9 km/h 40 % 0 mm
15:16 0.1 °C -8.4 °C 34496.6 hPa South 17.9 km/h 17.9 km/h 40 % 0 mm
15:21 -0.2 °C -8.9 °C 34496.6 hPa SW 11.9 km/h 11.9 km/h 39 % 0 mm
15:26 0.1 °C -8.4 °C 34462.7 hPa WNW 9 km/h 9 km/h 40 % 0 mm
15:31 0.2 °C -8.3 °C 34462.7 hPa SSW 9 km/h 9.8 km/h 40 % 0 mm
15:36 0.1 °C -8.7 °C 34462.7 hPa South 26.9 km/h 26.9 km/h 39 % 0 mm
15:41 -0.1 °C -8.8 °C 34462.7 hPa SW 7.6 km/h 7.6 km/h 39 % 0 mm
15:46 -0.2 °C -8.8 °C 34462.7 hPa ESE 15 km/h 15 km/h 39 % 0 mm
15:51 0.1 °C -8.7 °C 34462.7 hPa SSE 20.9 km/h 20.9 km/h 39 % 0 mm
15:56 -0.1 °C -8.8 °C 34462.7 hPa SSW 17.9 km/h 17.9 km/h 39 % 0 mm
16:01 -0.4 °C -9.3 °C 34462.7 hPa SW 17.9 km/h 17.9 km/h 38 % 0 mm
16:06 -0.3 °C -9 °C 34462.7 hPa WSW 22.5 km/h 22.5 km/h 39 % 0 mm
16:11 -0.4 °C -9.1 °C 34462.7 hPa SW 23.8 km/h 23.8 km/h 39 % 0 mm
16:16 -0.4 °C -9.1 °C 34462.7 hPa SW 15 km/h 15 km/h 39 % 0 mm
16:21 -0.5 °C -9.2 °C 34462.7 hPa SSW 20.9 km/h 20.9 km/h 39 % 0 mm
16:26 -0.3 °C -9 °C 34428.8 hPa South 11.9 km/h 11.9 km/h 39 % 0 mm
16:31 -0.2 °C -8.9 °C 34428.8 hPa SW 20.9 km/h 20.9 km/h 39 % 0 mm
16:36 -0.4 °C -8.8 °C 34428.8 hPa South 15 km/h 15 km/h 40 % 0 mm
16:41 -0.5 °C -9.2 °C 34462.7 hPa WSW 29.8 km/h 29.8 km/h 39 % 0 mm
16:46 -0.6 °C -9 °C 34462.7 hPa WSW 15 km/h 15 km/h 40 % 0 mm
16:51 -0.6 °C -8.8 °C 34462.7 hPa SW 20.9 km/h 20.9 km/h 41 % 0 mm
16:56 -0.6 °C -8.8 °C 34462.7 hPa WSW 15.3 km/h 15.3 km/h 41 % 0 mm
17:01 -0.6 °C -8.6 °C 34462.7 hPa SW 17.9 km/h 17.9 km/h 42 % 0 mm
17:06 -0.7 °C -8.7 °C 34462.7 hPa South 26.9 km/h 26.9 km/h 42 % 0 mm
17:11 -0.8 °C -8.8 °C 34462.7 hPa South 32.8 km/h 32.8 km/h 42 % 0 mm
17:16 -1 °C -8.9 °C 34462.7 hPa SW 20.9 km/h 20.9 km/h 42 % 0 mm
17:21 -0.8 °C -8.8 °C 34462.7 hPa SE 15 km/h 15 km/h 42 % 0 mm
17:26 -1 °C -8.8 °C 34462.7 hPa SW 17.9 km/h 17.9 km/h 43 % 0 mm
17:31 -0.8 °C -8.6 °C 34462.7 hPa SSW 19.2 km/h 19.2 km/h 43 % 0 mm
17:36 -1.2 °C -8.7 °C 34462.7 hPa WSW 23.8 km/h 23.8 km/h 44 % 0 mm
17:41 -1.2 °C -8.7 °C 34462.7 hPa SW 15 km/h 15 km/h 44 % 0 mm
17:46 -1.2 °C -8.7 °C 34462.7 hPa SW 23.8 km/h 23.8 km/h 44 % 0 mm
17:51 -1.3 °C -8.8 °C 34462.7 hPa SSW 20.9 km/h 20.9 km/h 44 % 0 mm
17:56 -1.2 °C -8.7 °C 34462.7 hPa SSW 23.8 km/h 23.8 km/h 44 % 0 mm
18:01 -1.2 °C -8.5 °C 34462.7 hPa WSW 15.6 km/h 15.6 km/h 45 % 0 mm
18:06 -1.3 °C -8.6 °C 34462.7 hPa West 16.1 km/h 16.1 km/h 45 % 0 mm
18:11 -1.4 °C -8.6 °C 34462.7 hPa SSW 17.9 km/h 17.9 km/h 46 % 0 mm
18:16 -1.5 °C -8.6 °C 34462.7 hPa South 20.9 km/h 20.9 km/h 46 % 0 mm
18:21 -1.7 °C -8.6 °C 34462.7 hPa South 15 km/h 15 km/h 47 % 0 mm
18:26 -1.7 °C -8.4 °C 34462.7 hPa South 20.9 km/h 20.9 km/h 48 % 0 mm
18:31 -1.6 °C -8.6 °C 34462.7 hPa SW 20.9 km/h 20.9 km/h 47 % 0 mm
18:36 -1.8 °C -8.4 °C 34462.7 hPa South 32.8 km/h 32.8 km/h 49 % 0 mm
18:41 -1.8 °C -8.4 °C 34462.7 hPa SW 11.9 km/h 14 km/h 49 % 0 mm
18:46 -1.9 °C -8.5 °C 34462.7 hPa SW 25.1 km/h 25.1 km/h 49 % 0 mm
18:51 -2.1 °C -8.6 °C 34462.7 hPa SW 17.9 km/h 17.9 km/h 49 % 0 mm
18:56 -2.2 °C -8.7 °C 34462.7 hPa SW 20.9 km/h 20.9 km/h 49 % 0 mm
19:01 -2.3 °C -8.6 °C 34462.7 hPa South 15 km/h 15 km/h 50 % 0 mm
19:06 -2.3 °C -8.6 °C 34462.7 hPa SW 26.4 km/h 26.4 km/h 50 % 0 mm
19:11 -2.4 °C -8.6 °C 34462.7 hPa SW 15 km/h 15 km/h 51 % 0 mm
19:16 -2.6 °C -8.7 °C 34462.7 hPa WSW 26.9 km/h 26.9 km/h 51 % 0 mm
19:21 -2.7 °C -8.7 °C 34462.7 hPa SSW 17.9 km/h 17.9 km/h 52 % 0 mm
19:26 -2.8 °C -8.6 °C 34462.7 hPa WNW 15 km/h 15 km/h 53 % 0 mm
19:31 -2.9 °C -8.7 °C 34462.7 hPa SSW 22.5 km/h 22.5 km/h 53 % 0 mm
19:36 -3.1 °C -8.7 °C 34462.7 hPa SW 20.9 km/h 20.9 km/h 54 % 0 mm
19:41 -3.1 °C -8.7 °C 34462.7 hPa SW 11.9 km/h 11.9 km/h 54 % 0 mm
19:46 -3.2 °C -8.7 °C 34462.7 hPa West 26.9 km/h 26.9 km/h 55 % 0 mm
19:51 -3.3 °C -8.7 °C 34462.7 hPa SW 20.9 km/h 20.9 km/h 55 % 0 mm
19:56 -3.3 °C -8.6 °C 34462.7 hPa SW 17.9 km/h 17.9 km/h 56 % 0 mm
20:01 -3.5 °C -8.7 °C 34462.7 hPa WSW 29.8 km/h 29.8 km/h 56 % 0 mm
20:06 -3.6 °C -8.7 °C 34462.7 hPa SSW 15 km/h 15 km/h 57 % 0 mm
20:11 -3.6 °C -8.7 °C 34462.7 hPa SSW 15 km/h 15 km/h 57 % 0 mm
20:16 -3.7 °C -8.8 °C 34462.7 hPa WSW 15 km/h 15 km/h 57 % 0 mm
20:21 -3.8 °C -8.8 °C 34462.7 hPa WSW 14.5 km/h 14.5 km/h 57 % 0 mm
20:26 -3.8 °C -8.7 °C 34462.7 hPa West 15 km/h 15 km/h 58 % 0 mm
20:31 -3.9 °C -8.7 °C 34462.7 hPa South 20.9 km/h 20.9 km/h 59 % 0 mm
20:36 -4 °C -8.6 °C 34462.7 hPa WSW 11.9 km/h 11.9 km/h 60 % 0 mm
20:41 -4.1 °C -8.7 °C 34462.7 hPa WSW 17.9 km/h 17.9 km/h 60 % 0 mm
20:46 -4.1 °C -8.7 °C 34462.7 hPa West 15 km/h 15 km/h 60 % 0 mm
20:51 -4.2 °C -8.8 °C 34462.7 hPa SW 9 km/h 9 km/h 60 % 0 mm
20:56 -4.2 °C -8.7 °C 34496.6 hPa West 9 km/h 9 km/h 61 % 0 mm
21:01 -4.3 °C -8.6 °C 34496.6 hPa WSW 7.6 km/h 7.6 km/h 62 % 0 mm
21:06 -4.3 °C -8.8 °C 34496.6 hPa WSW 6 km/h 7.6 km/h 61 % 0 mm
21:11 -4.4 °C -8.7 °C 34496.6 hPa SSE 6 km/h 6 km/h 62 % 0 mm
21:16 -4.4 °C -8.7 °C 34496.6 hPa SW 9.8 km/h 9.8 km/h 62 % 0 mm
21:21 -4.4 °C -8.7 °C 34496.6 hPa SSW 15 km/h 15 km/h 62 % 0 mm
21:26 -4.5 °C -8.5 °C 34533.8 hPa SW 6 km/h 6 km/h 64 % 0 mm
21:30 -5.7 °C -7.6 °C 34533.8 hPa SW 5.1 km/h 5.1 km/h 81 % 0 mm
21:31 -4.6 °C -8.6 °C 34533.8 hPa SW 6.8 km/h 6.8 km/h 64 % 0 mm
21:36 -4.6 °C -8.5 °C 34533.8 hPa South 6 km/h 6 km/h 65 % 0 mm
21:40 -5.7 °C -7.5 °C 34533.8 hPa WSW 2.6 km/h 7.7 km/h 82 % 0 mm
21:41 -4.6 °C -8.5 °C 34533.8 hPa SSW 9 km/h 9 km/h 65 % 0 mm
21:42 -4.7 °C -8.4 °C 34533.8 hPa WSW 9 km/h 9 km/h 66 % 0 mm
21:47 -4.7 °C -8.3 °C 34533.8 hPa SW 7.6 km/h 7.6 km/h 67 % 0 mm
21:50 -5.8 °C -7.6 °C 34533.8 hPa WSW 5.1 km/h 7.7 km/h 82 % 0 mm
21:52 -4.7 °C -8.3 °C 34533.8 hPa SSW 11.9 km/h 11.9 km/h 67 % 0 mm
21:57 -4.8 °C -8.2 °C 34533.8 hPa SW 6.3 km/h   68 % 0 mm
22:00 -5.8 °C -7.6 °C 34533.8 hPa WSW 5.1 km/h 7.7 km/h 82 % 0 mm
22:02 -4.8 °C -8.3 °C 34533.8 hPa WSW 6 km/h 6 km/h 68 % 0 mm
22:07 -4.8 °C -8.3 °C 34533.8 hPa SW 6 km/h 6 km/h 68 % 0 mm
22:10 -5.8 °C -7.6 °C 34533.8 hPa West 5.1 km/h 7.7 km/h 82 % 0 mm
22:12 -4.8 °C -8.2 °C 34533.8 hPa SW 9 km/h 9 km/h 69 % 0 mm
22:17 -4.9 °C -8.2 °C 34533.8 hPa SW 6 km/h 6 km/h 69 % 0 mm
22:20 -5.9 °C -7.4 °C 34533.8 hPa Calm   5.1 km/h 84 % 0 mm
22:22 -4.9 °C -8.2 °C 34533.8 hPa SW 6 km/h 6.3 km/h 70 % 0 mm
22:27 -4.9 °C -8.2 °C 34533.8 hPa SSW 9 km/h 9 km/h 70 % 0 mm
22:30 -5.9 °C -7.4 °C 34496.6 hPa West 2.6 km/h 5.1 km/h 84 % 0 mm
22:32 -4.9 °C -8 °C 34533.8 hPa WSW 6 km/h 6 km/h 71 % 0 mm
22:37 -4.9 °C -8 °C 34533.8 hPa SW 3.1 km/h 3.1 km/h 71 % 0 mm
22:40 -5.9 °C -7.4 °C 34533.8 hPa Calm   5.1 km/h 84 % 0 mm
22:42 -5 °C -8.1 °C 34533.8 hPa West 6 km/h 6 km/h 71 % 0 mm
22:47 -5 °C -7.9 °C 34533.8 hPa WNW 3.7 km/h 3.7 km/h 72 % 0 mm
22:50 -5.9 °C -7.5 °C 34533.8 hPa Calm   2.6 km/h 84 % 0 mm
22:52 -5 °C -7.9 °C 34533.8 hPa WSW 5.1 km/h 5.1 km/h 72 % 0 mm
22:57 -5 °C -7.9 °C 34496.6 hPa WSW 6 km/h 6 km/h 72 % 0 mm
23:00 -6 °C -7.6 °C 34533.8 hPa Calm     84 % 0 mm
23:02 -5.1 °C -7.9 °C 34496.6 hPa WSW 6 km/h 6 km/h 73 % 0 mm
23:07 -5.1 °C -8 °C 34496.6 hPa WSW 6 km/h 6.3 km/h 72 % 0 mm
23:10 -6.1 °C -7.6 °C 34533.8 hPa Calm   5.1 km/h 85 % 0 mm
23:12 -5.1 °C -7.9 °C 34533.8 hPa WSW 6 km/h 6 km/h 73 % 0 mm
23:17 -5.1 °C -7.9 °C 34533.8 hPa WSW 6 km/h 6 km/h 73 % 0 mm
23:20 -6.2 °C -7.6 °C 34533.8 hPa ESE 2.6 km/h 2.6 km/h 85 % 0 mm
23:22 -5.1 °C -7.9 °C 34533.8 hPa WSW 6 km/h 6 km/h 73 % 0 mm
23:27 -5.1 °C -7.8 °C 34533.8 hPa WSW 6 km/h 6 km/h 74 % 0 mm
23:30 -6.3 °C -7.7 °C 34533.8 hPa Calm   5.1 km/h 85 % 0 mm
23:32 -5.2 °C -7.9 °C 34533.8 hPa WSW 6 km/h 6 km/h 74 % 0 mm
23:37 -5.2 °C -7.9 °C 34533.8 hPa WSW 6 km/h 6 km/h 74 % 0 mm
23:40 -6.2 °C -7.6 °C 34533.8 hPa Calm     86 % 0 mm
23:42 -5.2 °C -7.9 °C 34533.8 hPa West 6 km/h 6 km/h 74 % 0 mm
23:47 -5.2 °C -7.7 °C 34533.8 hPa West 3.1 km/h 3.1 km/h 75 % 0 mm
23:50 -6.2 °C -7.6 °C 34533.8 hPa Calm     86 % 0 mm
23:52 -5.2 °C -7.7 °C 34533.8 hPa West 6 km/h 6 km/h 75 % 0 mm
23:57 -5.2 °C -7.7 °C 34533.8 hPa SW 6 km/h 6 km/h 75 % 0 mm
Meteo Sesrovires
Elogis d' Weather Underground - 1.5 mb

Guio original per  Jim McMurry - jmcmurry@mwt.net Adaptat per a la plantilla per  Wim van der Kuil - Leuven-Template.eu

Trobareu la nostra informacio del temps tambe a:

Weather Underground

AWEKAS